GIA224 OPKC-OEMA
Flight info
| Callsign | GIA224 |
|---|---|
| Flight time | N/A |
| Altitude | 38000 |
| Route | MELOM A454 VUSET T500 MCT T506 TULBU M628 PEKEM/N0492F280 M628 MIGMA M550 MEVDO Y511 ELONU |
| Aircraft | B77W/H-SDE1E2E3FGHIJ2J3J4J5M1RWXY/LB1D1 |
Departure
| Time | 2026-05-08 14:05 |
|---|---|
| Airport | Jinnah International Airport (OPKC) |
Arrival
| Time | N/A |
|---|---|
| Airport | Prince Mohammad Bin Abdulaziz Airport (OEMA) |
| Time | Latitude | Longitude | Altitude | Speed | Heading |
|---|---|---|---|---|---|
| 2026-05-08 13:48 | 24.90301 | 67.16833 | 106 ft | 0 kts | 125° |
| 2026-05-08 13:58 | 24.90307 | 67.16823 | 106 ft | 2 kts | 119° |
| 2026-05-08 13:59 | 24.90315 | 67.16806 | 107 ft | 2 kts | 112° |
| 2026-05-08 13:59 | 24.90320 | 67.16789 | 105 ft | 2 kts | 100° |
| 2026-05-08 13:59 | 24.90322 | 67.16771 | 104 ft | 2 kts | 81° |
| 2026-05-08 13:59 | 24.90317 | 67.16754 | 103 ft | 2 kts | 54° |
| 2026-05-08 14:00 | 24.90305 | 67.16741 | 103 ft | 2 kts | 23° |
| 2026-05-08 14:00 | 24.90294 | 67.16737 | 102 ft | 1 kts | 358° |
| 2026-05-08 14:00 | 24.90292 | 67.16737 | 102 ft | 0 kts | 354° |
| 2026-05-08 14:01 | 24.90315 | 67.16733 | 102 ft | 14 kts | 347° |
| 2026-05-08 14:02 | 24.90423 | 67.16704 | 108 ft | 16 kts | 0° |
| 2026-05-08 14:02 | 24.90498 | 67.16791 | 107 ft | 18 kts | 70° |
| 2026-05-08 14:02 | 24.90536 | 67.16935 | 107 ft | 20 kts | 74° |
| 2026-05-08 14:02 | 24.90574 | 67.17081 | 107 ft | 20 kts | 74° |
| 2026-05-08 14:03 | 24.90612 | 67.17228 | 107 ft | 20 kts | 73° |
| 2026-05-08 14:03 | 24.90655 | 67.17372 | 107 ft | 20 kts | 63° |
| 2026-05-08 14:03 | 24.90757 | 67.17469 | 109 ft | 19 kts | 31° |
| 2026-05-08 14:03 | 24.90845 | 67.17472 | 110 ft | 6 kts | 325° |
| 2026-05-08 14:04 | 24.90859 | 67.17428 | 109 ft | 7 kts | 268° |
| 2026-05-08 14:04 | 24.90857 | 67.17415 | 109 ft | 0 kts | 257° |
| 2026-05-08 14:04 | 24.90834 | 67.17317 | 112 ft | 45 kts | 255° |
| 2026-05-08 14:04 | 24.90676 | 67.16693 | 110 ft | 123 kts | 254° |
| 2026-05-08 14:05 | 24.90392 | 67.15547 | 113 ft | 183 kts | 255° |
| 2026-05-08 14:05 | 24.90055 | 67.14137 | 713 ft | 186 kts | 251° |
| 2026-05-08 14:05 | 24.89678 | 67.12830 | 1634 ft | 181 kts | 235° |
| 2026-05-08 14:05 | 24.88799 | 67.11854 | 2156 ft | 187 kts | 222° |
| 2026-05-08 14:06 | 24.87801 | 67.10788 | 2419 ft | 215 kts | 225° |
| 2026-05-08 14:06 | 24.86668 | 67.09533 | 2647 ft | 245 kts | 225° |
| 2026-05-08 14:06 | 24.85455 | 67.08174 | 3369 ft | 252 kts | 224° |
| 2026-05-08 14:06 | 24.84219 | 67.06776 | 4090 ft | 260 kts | 225° |
| 2026-05-08 14:07 | 24.82923 | 67.05303 | 4646 ft | 275 kts | 225° |
| 2026-05-08 14:07 | 24.81651 | 67.03707 | 5238 ft | 281 kts | 240° |
| 2026-05-08 14:07 | 24.81119 | 67.01637 | 5862 ft | 283 kts | 267° |
| 2026-05-08 14:07 | 24.81040 | 66.99470 | 6509 ft | 285 kts | 269° |
| 2026-05-08 14:08 | 24.80973 | 66.97281 | 6818 ft | 287 kts | 269° |
| 2026-05-08 14:08 | 24.80899 | 66.95059 | 6802 ft | 292 kts | 269° |
| 2026-05-08 14:08 | 24.80813 | 66.92821 | 6854 ft | 292 kts | 269° |
| 2026-05-08 14:08 | 24.80713 | 66.90580 | 7455 ft | 294 kts | 267° |
| 2026-05-08 14:09 | 24.80543 | 66.88345 | 8329 ft | 293 kts | 265° |
| 2026-05-08 14:09 | 24.80341 | 66.86098 | 9089 ft | 298 kts | 265° |
| 2026-05-08 14:09 | 24.80130 | 66.83817 | 9832 ft | 302 kts | 265° |
| 2026-05-08 14:09 | 24.79918 | 66.81515 | 10378 ft | 314 kts | 266° |
| 2026-05-08 14:10 | 24.79690 | 66.78989 | 10576 ft | 341 kts | 266° |
| 2026-05-08 14:10 | 24.79455 | 66.76340 | 10827 ft | 364 kts | 266° |
| 2026-05-08 14:10 | 24.79200 | 66.73472 | 11098 ft | 386 kts | 266° |
| 2026-05-08 14:10 | 24.78934 | 66.70505 | 11859 ft | 393 kts | 266° |
| 2026-05-08 14:11 | 24.78665 | 66.67503 | 12728 ft | 397 kts | 266° |
| 2026-05-08 14:11 | 24.78392 | 66.64450 | 13546 ft | 404 kts | 266° |
| 2026-05-08 14:11 | 24.78115 | 66.61348 | 14258 ft | 410 kts | 266° |
| 2026-05-08 14:11 | 24.77835 | 66.58207 | 15026 ft | 415 kts | 266° |
| 2026-05-08 14:12 | 24.77552 | 66.55034 | 15828 ft | 418 kts | 266° |
| 2026-05-08 14:12 | 24.77265 | 66.51836 | 16617 ft | 422 kts | 266° |
| 2026-05-08 14:12 | 24.76976 | 66.48606 | 17357 ft | 427 kts | 266° |
| 2026-05-08 14:12 | 24.76682 | 66.45337 | 18102 ft | 431 kts | 266° |
| 2026-05-08 14:13 | 24.76385 | 66.42031 | 18746 ft | 435 kts | 266° |
| 2026-05-08 14:13 | 24.76084 | 66.38703 | 19444 ft | 438 kts | 266° |
| 2026-05-08 14:13 | 24.75782 | 66.35357 | 20147 ft | 441 kts | 266° |
| 2026-05-08 14:13 | 24.75476 | 66.31995 | 20836 ft | 444 kts | 266° |
| 2026-05-08 14:14 | 24.75168 | 66.28606 | 21495 ft | 447 kts | 266° |
| 2026-05-08 14:14 | 24.74857 | 66.25188 | 22124 ft | 451 kts | 266° |
| 2026-05-08 14:14 | 24.74542 | 66.21748 | 22760 ft | 454 kts | 266° |
| 2026-05-08 14:14 | 24.74225 | 66.18281 | 23381 ft | 457 kts | 266° |
| 2026-05-08 14:15 | 24.73905 | 66.14793 | 23881 ft | 460 kts | 266° |
| 2026-05-08 14:15 | 24.73581 | 66.11278 | 24394 ft | 463 kts | 266° |
| 2026-05-08 14:15 | 24.73255 | 66.07751 | 24907 ft | 465 kts | 266° |
| 2026-05-08 14:15 | 24.72927 | 66.04203 | 25404 ft | 468 kts | 266° |
| 2026-05-08 14:16 | 24.72596 | 66.00637 | 25887 ft | 470 kts | 266° |
| 2026-05-08 14:16 | 24.72262 | 65.97048 | 26353 ft | 473 kts | 266° |
| 2026-05-08 14:16 | 24.71926 | 65.93440 | 26806 ft | 476 kts | 266° |
| 2026-05-08 14:16 | 24.71587 | 65.89815 | 27245 ft | 479 kts | 266° |
| 2026-05-08 14:17 | 24.71244 | 65.86160 | 27675 ft | 481 kts | 266° |
| 2026-05-08 14:17 | 24.70900 | 65.82498 | 28108 ft | 483 kts | 266° |
| 2026-05-08 14:17 | 24.70552 | 65.78809 | 28519 ft | 486 kts | 266° |
| 2026-05-08 14:17 | 24.70202 | 65.75103 | 28896 ft | 488 kts | 266° |
| 2026-05-08 14:18 | 24.69849 | 65.71378 | 29248 ft | 491 kts | 266° |
| 2026-05-08 14:18 | 24.69494 | 65.67647 | 29612 ft | 492 kts | 266° |
| 2026-05-08 14:18 | 24.69137 | 65.63903 | 30035 ft | 491 kts | 266° |
| 2026-05-08 14:18 | 24.68780 | 65.60182 | 30499 ft | 489 kts | 266° |
| 2026-05-08 14:19 | 24.68429 | 65.56522 | 30982 ft | 486 kts | 266° |
| 2026-05-08 14:19 | 24.68070 | 65.52791 | 31461 ft | 484 kts | 266° |
| 2026-05-08 14:19 | 24.67720 | 65.49163 | 31920 ft | 482 kts | 266° |
| 2026-05-08 14:19 | 24.67362 | 65.45453 | 32364 ft | 481 kts | 266° |
| 2026-05-08 14:20 | 24.67014 | 65.41854 | 32807 ft | 479 kts | 266° |
| 2026-05-08 14:20 | 24.66895 | 65.40625 | 32976 ft | 479 kts | 266° |
| 2026-05-08 14:21 | 24.66054 | 65.31983 | 34036 ft | 474 kts | 266° |
| 2026-05-08 14:21 | 24.65689 | 65.28242 | 34415 ft | 473 kts | 266° |
| 2026-05-08 14:21 | 24.65337 | 65.24643 | 34783 ft | 472 kts | 266° |
| 2026-05-08 14:21 | 24.64985 | 65.21061 | 35139 ft | 471 kts | 266° |
| 2026-05-08 14:22 | 24.64633 | 65.17483 | 35518 ft | 470 kts | 266° |
| 2026-05-08 14:22 | 24.64282 | 65.13919 | 35874 ft | 469 kts | 265° |
| 2026-05-08 14:22 | 24.63931 | 65.10366 | 36218 ft | 468 kts | 265° |
| 2026-05-08 14:22 | 24.63578 | 65.06813 | 36556 ft | 466 kts | 265° |
| 2026-05-08 14:23 | 24.63227 | 65.03274 | 36888 ft | 466 kts | 265° |
| 2026-05-08 14:23 | 24.62875 | 64.99743 | 37215 ft | 465 kts | 265° |
| 2026-05-08 14:23 | 24.62524 | 64.96223 | 37536 ft | 463 kts | 265° |
| 2026-05-08 14:23 | 24.62175 | 64.92739 | 37701 ft | 466 kts | 265° |
| 2026-05-08 14:24 | 24.61819 | 64.89188 | 37742 ft | 469 kts | 265° |
| 2026-05-08 14:24 | 24.61103 | 64.82077 | 37751 ft | 466 kts | 265° |
| 2026-05-08 14:25 | 24.60392 | 64.75050 | 37748 ft | 461 kts | 265° |
| 2026-05-08 14:25 | 24.59680 | 64.68048 | 37761 ft | 460 kts | 265° |
| 2026-05-08 14:26 | 24.58966 | 64.61057 | 37756 ft | 460 kts | 265° |
| 2026-05-08 14:26 | 24.58249 | 64.54061 | 37755 ft | 461 kts | 265° |
| 2026-05-08 14:27 | 24.57644 | 64.48187 | 37761 ft | 463 kts | 265° |
| 2026-05-08 14:27 | 24.56916 | 64.41152 | 37757 ft | 464 kts | 264° |
| 2026-05-08 14:28 | 24.56188 | 64.34148 | 37755 ft | 465 kts | 264° |
| 2026-05-08 14:28 | 24.55450 | 64.27077 | 37757 ft | 466 kts | 264° |
| 2026-05-08 14:29 | 24.54707 | 64.19993 | 37750 ft | 467 kts | 264° |
| 2026-05-08 14:29 | 24.53960 | 64.12906 | 37750 ft | 467 kts | 264° |
| 2026-05-08 14:30 | 24.53210 | 64.05819 | 37744 ft | 467 kts | 264° |
| 2026-05-08 14:30 | 24.52456 | 63.98737 | 37747 ft | 467 kts | 264° |
| 2026-05-08 14:31 | 24.51700 | 63.91653 | 37741 ft | 467 kts | 264° |
| 2026-05-08 14:31 | 24.49136 | 63.67838 | 37737 ft | 467 kts | 264° |
| 2026-05-08 14:32 | 24.47975 | 63.57225 | 37744 ft | 467 kts | 264° |
| 2026-05-08 14:32 | 24.47198 | 63.50145 | 37733 ft | 467 kts | 264° |
| 2026-05-08 14:33 | 24.46418 | 63.43063 | 37735 ft | 468 kts | 264° |
| 2026-05-08 14:33 | 24.45634 | 63.35971 | 37741 ft | 468 kts | 264° |
| 2026-05-08 14:34 | 24.44852 | 63.28931 | 37738 ft | 468 kts | 263° |
| 2026-05-08 14:34 | 24.44061 | 63.21836 | 37744 ft | 468 kts | 263° |
| 2026-05-08 14:35 | 24.43265 | 63.14735 | 37727 ft | 469 kts | 263° |
| 2026-05-08 14:35 | 24.42466 | 63.07635 | 37726 ft | 469 kts | 263° |
| 2026-05-08 14:36 | 24.41664 | 63.00533 | 37732 ft | 469 kts | 263° |
| 2026-05-08 14:36 | 24.40858 | 62.93429 | 37739 ft | 469 kts | 263° |
| 2026-05-08 14:37 | 24.40048 | 62.86322 | 37728 ft | 470 kts | 263° |
| 2026-05-08 14:37 | 24.39234 | 62.79212 | 37724 ft | 470 kts | 263° |
| 2026-05-08 14:38 | 24.38418 | 62.72105 | 37727 ft | 470 kts | 263° |
| 2026-05-08 14:38 | 24.37596 | 62.64987 | 37725 ft | 470 kts | 263° |
| 2026-05-08 14:39 | 24.36772 | 62.57876 | 37729 ft | 470 kts | 263° |
| 2026-05-08 14:39 | 24.35944 | 62.50756 | 37738 ft | 470 kts | 263° |
| 2026-05-08 14:40 | 24.35113 | 62.43640 | 37727 ft | 471 kts | 263° |
| 2026-05-08 14:40 | 24.34283 | 62.36569 | 37725 ft | 471 kts | 263° |
| 2026-05-08 14:41 | 24.33367 | 62.29470 | 37719 ft | 471 kts | 258° |
| 2026-05-08 14:41 | 24.31688 | 62.22518 | 37719 ft | 471 kts | 255° |
| 2026-05-08 14:42 | 24.29908 | 62.15608 | 37739 ft | 471 kts | 255° |
| 2026-05-08 14:42 | 24.28147 | 62.08687 | 37734 ft | 472 kts | 255° |
| 2026-05-08 14:43 | 24.26405 | 62.01757 | 37727 ft | 472 kts | 255° |
| 2026-05-08 14:43 | 24.24666 | 61.94816 | 37729 ft | 472 kts | 255° |
| 2026-05-08 14:44 | 24.22927 | 61.87886 | 37722 ft | 472 kts | 255° |
| 2026-05-08 14:44 | 24.21282 | 61.81350 | 37740 ft | 472 kts | 255° |
| 2026-05-08 14:45 | 24.19534 | 61.74422 | 37735 ft | 472 kts | 255° |
| 2026-05-08 14:45 | 24.17782 | 61.67493 | 37723 ft | 472 kts | 255° |
| 2026-05-08 14:46 | 24.16027 | 61.60565 | 37720 ft | 472 kts | 255° |
| 2026-05-08 14:46 | 24.14269 | 61.53641 | 37723 ft | 472 kts | 255° |
| 2026-05-08 14:47 | 24.12522 | 61.46773 | 37733 ft | 471 kts | 255° |
| 2026-05-08 14:47 | 24.10759 | 61.39858 | 37735 ft | 471 kts | 255° |
| 2026-05-08 14:48 | 24.08995 | 61.32949 | 37724 ft | 471 kts | 254° |
| 2026-05-08 14:48 | 24.07227 | 61.26043 | 37725 ft | 471 kts | 254° |
| 2026-05-08 14:49 | 24.05457 | 61.19139 | 37725 ft | 471 kts | 254° |
| 2026-05-08 14:49 | 24.03684 | 61.12240 | 37727 ft | 471 kts | 254° |
| 2026-05-08 14:50 | 24.01908 | 61.05345 | 37738 ft | 471 kts | 254° |
| 2026-05-08 14:50 | 24.00129 | 60.98448 | 37731 ft | 471 kts | 254° |
| 2026-05-08 14:51 | 23.98361 | 60.91611 | 37733 ft | 471 kts | 254° |
| 2026-05-08 14:51 | 23.96576 | 60.84721 | 37735 ft | 471 kts | 254° |
| 2026-05-08 14:52 | 23.93894 | 60.74394 | 37734 ft | 471 kts | 254° |
| 2026-05-08 14:53 | 23.92103 | 60.67513 | 37738 ft | 471 kts | 254° |
| 2026-05-08 14:53 | 23.90309 | 60.60637 | 37736 ft | 470 kts | 254° |
| 2026-05-08 14:54 | 23.88511 | 60.53759 | 37736 ft | 470 kts | 254° |
| 2026-05-08 14:54 | 23.86723 | 60.46930 | 37726 ft | 470 kts | 254° |
| 2026-05-08 14:55 | 23.84923 | 60.40069 | 37726 ft | 470 kts | 253° |
| 2026-05-08 14:55 | 23.80628 | 60.23755 | 37729 ft | 470 kts | 253° |
| 2026-05-08 14:56 | 23.73372 | 59.96369 | 37726 ft | 469 kts | 253° |
| 2026-05-08 14:56 | 23.66070 | 59.69018 | 37725 ft | 469 kts | 253° |
| 2026-05-08 14:57 | 23.62577 | 59.56008 | 37738 ft | 469 kts | 253° |
| 2026-05-08 14:57 | 23.60738 | 59.49180 | 37729 ft | 469 kts | 253° |
| 2026-05-08 14:58 | 23.58897 | 59.42354 | 37724 ft | 469 kts | 253° |
| 2026-05-08 14:58 | 23.57053 | 59.35531 | 37727 ft | 470 kts | 253° |
| 2026-05-08 14:59 | 23.55203 | 59.28700 | 37737 ft | 470 kts | 253° |
| 2026-05-08 14:59 | 23.42423 | 58.81831 | 37738 ft | 470 kts | 252° |
| 2026-05-08 15:00 | 23.40547 | 58.75023 | 37740 ft | 469 kts | 252° |
| 2026-05-08 15:00 | 23.38674 | 58.68223 | 37743 ft | 469 kts | 252° |
| 2026-05-08 15:01 | 23.36798 | 58.61420 | 37762 ft | 469 kts | 252° |
| 2026-05-08 15:01 | 23.34932 | 58.54668 | 37761 ft | 469 kts | 252° |
| 2026-05-08 15:02 | 23.33052 | 58.47876 | 37767 ft | 468 kts | 252° |
| 2026-05-08 15:02 | 23.31173 | 58.41099 | 37781 ft | 468 kts | 252° |
| 2026-05-08 15:03 | 23.29291 | 58.34326 | 37788 ft | 467 kts | 252° |
| 2026-05-08 15:03 | 23.27407 | 58.27561 | 37780 ft | 468 kts | 252° |
| 2026-05-08 15:04 | 23.25519 | 58.20791 | 37800 ft | 467 kts | 252° |
| 2026-05-08 15:04 | 23.23632 | 58.14033 | 37805 ft | 467 kts | 252° |
| 2026-05-08 15:05 | 23.21742 | 58.07282 | 37818 ft | 467 kts | 252° |
| 2026-05-08 15:05 | 23.19848 | 58.00527 | 37826 ft | 467 kts | 252° |
| 2026-05-08 15:06 | 23.17953 | 57.93778 | 37832 ft | 467 kts | 252° |
| 2026-05-08 15:06 | 23.16053 | 57.87031 | 37841 ft | 467 kts | 252° |
| 2026-05-08 15:07 | 23.14151 | 57.80284 | 37886 ft | 467 kts | 252° |
| 2026-05-08 15:07 | 23.12242 | 57.73524 | 37856 ft | 468 kts | 252° |
| 2026-05-08 15:08 | 23.10654 | 57.67910 | 37871 ft | 468 kts | 252° |
| 2026-05-08 15:08 | 23.08418 | 57.60019 | 37874 ft | 468 kts | 252° |
| 2026-05-08 15:09 | 23.06501 | 57.53268 | 37879 ft | 468 kts | 252° |
| 2026-05-08 15:09 | 23.04584 | 57.46524 | 37874 ft | 468 kts | 252° |
| 2026-05-08 15:10 | 23.02662 | 57.39774 | 37871 ft | 467 kts | 252° |
| 2026-05-08 15:10 | 23.00907 | 57.32995 | 37869 ft | 467 kts | 258° |
| 2026-05-08 15:11 | 23.00179 | 57.26037 | 37873 ft | 468 kts | 268° |
| 2026-05-08 15:11 | 23.00330 | 57.18920 | 37881 ft | 476 kts | 271° |
| 2026-05-08 15:12 | 23.00567 | 57.11681 | 37878 ft | 483 kts | 270° |
| 2026-05-08 15:12 | 23.00755 | 57.04335 | 37879 ft | 489 kts | 270° |
| 2026-05-08 15:13 | 23.00898 | 56.98199 | 37869 ft | 491 kts | 270° |
| 2026-05-08 15:13 | 23.01076 | 56.90786 | 37861 ft | 492 kts | 270° |
| 2026-05-08 15:14 | 23.01256 | 56.83371 | 37863 ft | 491 kts | 270° |
| 2026-05-08 15:14 | 23.01432 | 56.75966 | 37854 ft | 490 kts | 270° |
| 2026-05-08 15:15 | 23.01603 | 56.68587 | 37842 ft | 488 kts | 270° |
| 2026-05-08 15:15 | 23.01769 | 56.61237 | 37828 ft | 486 kts | 270° |
| 2026-05-08 15:16 | 23.01932 | 56.53907 | 37823 ft | 485 kts | 270° |
| 2026-05-08 15:16 | 23.02091 | 56.46593 | 37823 ft | 484 kts | 270° |
| 2026-05-08 15:17 | 23.02246 | 56.39292 | 37818 ft | 484 kts | 270° |
| 2026-05-08 15:17 | 23.02398 | 56.31994 | 37816 ft | 484 kts | 270° |
| 2026-05-08 15:18 | 23.02537 | 56.24693 | 37813 ft | 484 kts | 269° |
| 2026-05-08 15:18 | 23.02666 | 56.17391 | 37811 ft | 484 kts | 269° |
| 2026-05-08 15:19 | 23.02793 | 56.10076 | 37810 ft | 485 kts | 269° |
| 2026-05-08 15:19 | 23.02918 | 56.02753 | 37809 ft | 485 kts | 269° |
| 2026-05-08 15:20 | 23.03041 | 55.95428 | 37809 ft | 486 kts | 269° |
| 2026-05-08 15:20 | 23.03164 | 55.88142 | 37802 ft | 486 kts | 269° |
| 2026-05-08 15:21 | 23.03305 | 55.80808 | 37803 ft | 486 kts | 270° |
| 2026-05-08 15:21 | 23.03444 | 55.73468 | 37804 ft | 486 kts | 269° |
| 2026-05-08 15:22 | 23.03577 | 55.66131 | 37803 ft | 486 kts | 269° |
| 2026-05-08 15:22 | 23.03706 | 55.58788 | 37801 ft | 486 kts | 269° |
| 2026-05-08 15:23 | 23.03830 | 55.51454 | 37799 ft | 486 kts | 269° |
| 2026-05-08 15:23 | 23.03925 | 55.44117 | 37794 ft | 486 kts | 269° |
| 2026-05-08 15:24 | 23.04016 | 55.36785 | 37797 ft | 486 kts | 269° |
| 2026-05-08 15:24 | 23.03833 | 55.29479 | 37800 ft | 484 kts | 262° |
| 2026-05-08 15:25 | 23.02606 | 55.22422 | 37788 ft | 466 kts | 256° |
| 2026-05-08 15:25 | 23.01208 | 55.15588 | 37784 ft | 462 kts | 256° |
| 2026-05-08 15:26 | 22.99864 | 55.08771 | 37786 ft | 461 kts | 256° |
| 2026-05-08 15:26 | 22.98531 | 55.01967 | 37776 ft | 461 kts | 256° |
| 2026-05-08 15:27 | 22.97193 | 54.95163 | 37784 ft | 461 kts | 256° |
| 2026-05-08 15:27 | 22.95850 | 54.88360 | 37770 ft | 461 kts | 256° |
| 2026-05-08 15:28 | 22.94501 | 54.81552 | 37773 ft | 462 kts | 256° |
| 2026-05-08 15:28 | 22.93147 | 54.74737 | 37778 ft | 462 kts | 256° |
| 2026-05-08 15:29 | 22.91790 | 54.67915 | 37775 ft | 463 kts | 256° |
| 2026-05-08 15:29 | 22.90439 | 54.61145 | 37780 ft | 463 kts | 256° |
| 2026-05-08 15:30 | 22.89076 | 54.54325 | 37781 ft | 463 kts | 256° |
| 2026-05-08 15:30 | 22.87707 | 54.47498 | 37784 ft | 463 kts | 256° |
| 2026-05-08 15:31 | 22.86339 | 54.40686 | 37782 ft | 462 kts | 256° |
| 2026-05-08 15:31 | 22.84968 | 54.33875 | 37785 ft | 462 kts | 256° |
| 2026-05-08 15:32 | 22.83596 | 54.27074 | 37783 ft | 462 kts | 256° |
| 2026-05-08 15:32 | 22.82221 | 54.20281 | 37783 ft | 461 kts | 256° |
| 2026-05-08 15:33 | 22.80845 | 54.13491 | 37781 ft | 461 kts | 256° |
| 2026-05-08 15:33 | 22.79468 | 54.06710 | 37787 ft | 461 kts | 256° |
| 2026-05-08 15:34 | 22.78298 | 53.99883 | 37790 ft | 462 kts | 262° |
| 2026-05-08 15:34 | 22.78138 | 53.92911 | 37797 ft | 464 kts | 269° |
| 2026-05-08 15:35 | 22.78407 | 53.85915 | 37788 ft | 465 kts | 270° |
| 2026-05-08 15:35 | 22.78673 | 53.78919 | 37790 ft | 465 kts | 270° |
| 2026-05-08 15:36 | 22.78912 | 53.71927 | 37792 ft | 464 kts | 269° |
| 2026-05-08 15:36 | 22.79135 | 53.64980 | 37792 ft | 464 kts | 269° |
| 2026-05-08 15:37 | 22.79355 | 53.57986 | 37788 ft | 464 kts | 269° |
| 2026-05-08 15:37 | 22.79571 | 53.50990 | 37799 ft | 464 kts | 269° |
| 2026-05-08 15:38 | 22.79785 | 53.43995 | 37800 ft | 464 kts | 269° |
| 2026-05-08 15:38 | 22.79997 | 53.36999 | 37793 ft | 464 kts | 269° |
| 2026-05-08 15:39 | 22.80206 | 53.30005 | 37791 ft | 464 kts | 269° |
| 2026-05-08 15:39 | 22.80411 | 53.23013 | 37806 ft | 464 kts | 269° |
| 2026-05-08 15:40 | 22.80614 | 53.16025 | 37808 ft | 464 kts | 269° |
| 2026-05-08 15:40 | 22.80813 | 53.09046 | 37809 ft | 463 kts | 269° |
| 2026-05-08 15:41 | 22.81009 | 53.02063 | 37802 ft | 463 kts | 269° |
| 2026-05-08 15:41 | 22.81202 | 52.95086 | 37817 ft | 463 kts | 269° |
| 2026-05-08 15:42 | 22.81391 | 52.88151 | 37811 ft | 463 kts | 269° |
| 2026-05-08 15:42 | 22.81577 | 52.81177 | 37816 ft | 463 kts | 269° |
| 2026-05-08 15:43 | 22.81762 | 52.74197 | 37821 ft | 463 kts | 269° |
| 2026-05-08 15:43 | 22.81942 | 52.67217 | 37821 ft | 463 kts | 269° |
| 2026-05-08 15:44 | 22.82120 | 52.60243 | 37811 ft | 463 kts | 269° |
| 2026-05-08 15:44 | 22.82295 | 52.53269 | 37824 ft | 463 kts | 269° |
| 2026-05-08 15:45 | 22.82464 | 52.46293 | 37815 ft | 463 kts | 269° |
| 2026-05-08 15:45 | 22.82612 | 52.39313 | 37817 ft | 463 kts | 268° |
| 2026-05-08 15:46 | 22.82753 | 52.32391 | 37815 ft | 462 kts | 268° |
| 2026-05-08 15:46 | 22.82894 | 52.25426 | 37828 ft | 462 kts | 268° |
| 2026-05-08 15:47 | 22.83034 | 52.18465 | 37831 ft | 462 kts | 268° |
| 2026-05-08 15:47 | 22.83170 | 52.11504 | 37821 ft | 462 kts | 268° |
| 2026-05-08 15:48 | 22.83369 | 52.01073 | 37821 ft | 461 kts | 268° |
| 2026-05-08 15:49 | 22.83497 | 51.94120 | 37835 ft | 461 kts | 268° |
| 2026-05-08 15:49 | 22.83623 | 51.87165 | 37825 ft | 461 kts | 268° |
| 2026-05-08 15:50 | 22.83746 | 51.80213 | 37826 ft | 461 kts | 268° |
| 2026-05-08 15:50 | 22.83866 | 51.73256 | 37843 ft | 461 kts | 268° |
| 2026-05-08 15:51 | 22.83982 | 51.66301 | 37840 ft | 462 kts | 268° |
| 2026-05-08 15:51 | 22.84096 | 51.59389 | 37847 ft | 462 kts | 268° |
| 2026-05-08 15:52 | 22.84207 | 51.52431 | 37844 ft | 462 kts | 268° |
| 2026-05-08 15:52 | 22.84088 | 51.45491 | 37836 ft | 459 kts | 262° |
| 2026-05-08 15:53 | 22.83015 | 51.38702 | 37840 ft | 457 kts | 256° |
| 2026-05-08 15:53 | 22.81782 | 51.31947 | 37835 ft | 457 kts | 256° |
| 2026-05-08 15:54 | 22.80580 | 51.25178 | 37837 ft | 457 kts | 257° |
| 2026-05-08 15:54 | 22.79392 | 51.18404 | 37836 ft | 457 kts | 257° |
| 2026-05-08 15:55 | 22.78199 | 51.11631 | 37838 ft | 457 kts | 256° |
| 2026-05-08 15:55 | 22.76378 | 51.01480 | 37839 ft | 457 kts | 256° |
| 2026-05-08 15:56 | 22.75157 | 50.94714 | 37838 ft | 457 kts | 256° |
| 2026-05-08 15:56 | 22.73935 | 50.87949 | 37838 ft | 457 kts | 256° |
| 2026-05-08 15:57 | 22.72713 | 50.81195 | 37838 ft | 457 kts | 256° |
| 2026-05-08 15:57 | 22.71498 | 50.74489 | 37840 ft | 456 kts | 256° |
| 2026-05-08 15:58 | 22.70272 | 50.67748 | 37839 ft | 456 kts | 256° |
| 2026-05-08 15:58 | 22.69046 | 50.61019 | 37837 ft | 455 kts | 256° |
| 2026-05-08 15:59 | 22.67818 | 50.54300 | 37841 ft | 455 kts | 256° |
| 2026-05-08 15:59 | 22.66590 | 50.47592 | 37840 ft | 454 kts | 256° |
| 2026-05-08 16:00 | 22.65361 | 50.40898 | 37844 ft | 453 kts | 256° |
| 2026-05-08 16:00 | 22.64131 | 50.34211 | 37840 ft | 452 kts | 256° |
| 2026-05-08 16:01 | 22.62900 | 50.27542 | 37840 ft | 452 kts | 256° |
| 2026-05-08 16:01 | 22.61668 | 50.20881 | 37840 ft | 451 kts | 256° |
| 2026-05-08 16:02 | 22.60435 | 50.14225 | 37842 ft | 451 kts | 256° |
| 2026-05-08 16:02 | 22.59199 | 50.07579 | 37841 ft | 450 kts | 256° |
| 2026-05-08 16:03 | 22.57964 | 50.00942 | 37848 ft | 450 kts | 256° |
| 2026-05-08 16:03 | 22.56935 | 49.95429 | 37852 ft | 450 kts | 256° |
| 2026-05-08 16:04 | 22.55693 | 49.88787 | 37849 ft | 450 kts | 256° |
| 2026-05-08 16:04 | 22.54451 | 49.82153 | 37848 ft | 450 kts | 256° |
| 2026-05-08 16:05 | 22.53856 | 49.75387 | 37855 ft | 454 kts | 266° |
| 2026-05-08 16:05 | 22.54233 | 49.68533 | 37851 ft | 458 kts | 272° |
| 2026-05-08 16:06 | 22.54923 | 49.61676 | 37849 ft | 459 kts | 272° |
| 2026-05-08 16:06 | 22.55612 | 49.54811 | 37847 ft | 459 kts | 272° |
| 2026-05-08 16:07 | 22.56269 | 49.47989 | 37849 ft | 459 kts | 272° |
| 2026-05-08 16:07 | 22.56916 | 49.41122 | 37846 ft | 459 kts | 272° |
| 2026-05-08 16:08 | 22.57557 | 49.34254 | 37848 ft | 459 kts | 271° |
| 2026-05-08 16:08 | 22.58196 | 49.27384 | 37843 ft | 459 kts | 271° |
| 2026-05-08 16:09 | 22.58832 | 49.20528 | 37848 ft | 458 kts | 271° |
| 2026-05-08 16:09 | 22.59465 | 49.13665 | 37847 ft | 458 kts | 271° |
| 2026-05-08 16:10 | 22.60095 | 49.06811 | 37847 ft | 458 kts | 271° |
| 2026-05-08 16:10 | 22.60721 | 48.99958 | 37851 ft | 457 kts | 271° |
| 2026-05-08 16:11 | 22.61345 | 48.93107 | 37852 ft | 457 kts | 271° |
| 2026-05-08 16:11 | 22.61965 | 48.86260 | 37850 ft | 457 kts | 271° |
| 2026-05-08 16:12 | 22.62582 | 48.79414 | 37853 ft | 457 kts | 271° |
| 2026-05-08 16:12 | 22.63196 | 48.72568 | 37855 ft | 457 kts | 271° |
| 2026-05-08 16:13 | 22.63807 | 48.65727 | 37855 ft | 456 kts | 271° |
| 2026-05-08 16:13 | 22.64414 | 48.58892 | 37854 ft | 456 kts | 271° |
| 2026-05-08 16:14 | 22.65014 | 48.52104 | 37856 ft | 456 kts | 271° |
| 2026-05-08 16:14 | 22.65614 | 48.45279 | 37854 ft | 455 kts | 271° |
| 2026-05-08 16:15 | 22.66212 | 48.38460 | 37862 ft | 455 kts | 271° |
| 2026-05-08 16:15 | 22.66805 | 48.31646 | 37858 ft | 454 kts | 271° |
| 2026-05-08 16:16 | 22.67394 | 48.24846 | 37860 ft | 454 kts | 271° |
| 2026-05-08 16:16 | 22.67981 | 48.18049 | 37858 ft | 453 kts | 271° |
| 2026-05-08 16:17 | 22.68563 | 48.11263 | 37862 ft | 452 kts | 271° |
| 2026-05-08 16:17 | 22.69143 | 48.04481 | 37859 ft | 452 kts | 270° |
| 2026-05-08 16:18 | 22.69714 | 47.97705 | 37864 ft | 451 kts | 270° |
| 2026-05-08 16:18 | 22.70277 | 47.90942 | 37860 ft | 451 kts | 270° |
| 2026-05-08 16:19 | 22.70837 | 47.84184 | 37862 ft | 450 kts | 270° |
| 2026-05-08 16:19 | 22.71394 | 47.77433 | 37868 ft | 450 kts | 270° |
| 2026-05-08 16:20 | 22.71947 | 47.70697 | 37872 ft | 449 kts | 270° |
| 2026-05-08 16:20 | 22.72497 | 47.63968 | 37874 ft | 448 kts | 270° |
| 2026-05-08 16:21 | 22.73040 | 47.57283 | 37875 ft | 448 kts | 270° |
| 2026-05-08 16:21 | 22.73587 | 47.50527 | 37880 ft | 447 kts | 270° |
| 2026-05-08 16:22 | 22.74123 | 47.43859 | 37888 ft | 447 kts | 270° |
| 2026-05-08 16:22 | 22.74659 | 47.37164 | 37886 ft | 446 kts | 270° |
| 2026-05-08 16:23 | 22.75191 | 47.30478 | 37896 ft | 445 kts | 270° |
| 2026-05-08 16:23 | 22.75720 | 47.23797 | 37891 ft | 445 kts | 270° |
| 2026-05-08 16:24 | 22.76246 | 47.17122 | 37898 ft | 444 kts | 270° |
| 2026-05-08 16:24 | 22.76778 | 47.10456 | 37900 ft | 444 kts | 270° |
| 2026-05-08 16:25 | 22.77312 | 47.03799 | 37900 ft | 443 kts | 270° |
| 2026-05-08 16:25 | 22.77841 | 46.97148 | 37933 ft | 443 kts | 269° |
| 2026-05-08 16:26 | 22.78366 | 46.90499 | 37920 ft | 443 kts | 269° |
| 2026-05-08 16:26 | 22.78888 | 46.83844 | 37913 ft | 443 kts | 269° |
| 2026-05-08 16:27 | 22.79404 | 46.77239 | 37912 ft | 442 kts | 269° |
| 2026-05-08 16:27 | 22.79921 | 46.70600 | 37907 ft | 442 kts | 269° |
| 2026-05-08 16:28 | 22.80433 | 46.63968 | 37928 ft | 441 kts | 269° |
| 2026-05-08 16:28 | 22.80943 | 46.57340 | 37916 ft | 441 kts | 269° |
| 2026-05-08 16:29 | 22.81449 | 46.50718 | 37920 ft | 441 kts | 269° |
| 2026-05-08 16:29 | 22.81953 | 46.44098 | 37926 ft | 440 kts | 269° |
| 2026-05-08 16:30 | 22.82452 | 46.37484 | 37917 ft | 440 kts | 269° |
| 2026-05-08 16:30 | 22.82941 | 46.30887 | 37930 ft | 439 kts | 269° |
| 2026-05-08 16:31 | 22.83425 | 46.24301 | 37917 ft | 438 kts | 269° |
| 2026-05-08 16:31 | 22.83906 | 46.17734 | 37920 ft | 437 kts | 269° |
| 2026-05-08 16:32 | 22.84384 | 46.11170 | 37912 ft | 436 kts | 269° |
| 2026-05-08 16:32 | 22.84858 | 46.04614 | 37908 ft | 436 kts | 269° |
| 2026-05-08 16:33 | 22.85330 | 45.98059 | 37908 ft | 436 kts | 269° |
| 2026-05-08 16:33 | 22.85796 | 45.91554 | 37907 ft | 436 kts | 268° |
| 2026-05-08 16:34 | 22.86262 | 45.85003 | 37902 ft | 436 kts | 268° |
| 2026-05-08 16:34 | 22.86726 | 45.78451 | 37899 ft | 436 kts | 268° |
| 2026-05-08 16:35 | 22.87187 | 45.71896 | 37904 ft | 436 kts | 268° |
| 2026-05-08 16:35 | 22.87645 | 45.65338 | 37909 ft | 436 kts | 268° |
| 2026-05-08 16:36 | 22.88102 | 45.58772 | 37910 ft | 437 kts | 268° |
| 2026-05-08 16:36 | 22.88555 | 45.52206 | 37906 ft | 437 kts | 268° |
| 2026-05-08 16:37 | 22.89007 | 45.45632 | 37910 ft | 437 kts | 268° |
| 2026-05-08 16:37 | 22.89455 | 45.39068 | 37915 ft | 437 kts | 268° |
| 2026-05-08 16:38 | 22.89901 | 45.32493 | 37917 ft | 437 kts | 268° |
| 2026-05-08 16:38 | 22.90345 | 45.25923 | 37915 ft | 437 kts | 268° |
| 2026-05-08 16:39 | 22.90785 | 45.19354 | 37913 ft | 436 kts | 268° |
| 2026-05-08 16:39 | 22.91223 | 45.12797 | 37923 ft | 436 kts | 268° |
| 2026-05-08 16:40 | 22.91656 | 45.06246 | 37924 ft | 435 kts | 268° |
| 2026-05-08 16:40 | 22.92088 | 44.99708 | 37924 ft | 434 kts | 268° |
| 2026-05-08 16:41 | 22.92516 | 44.93182 | 37918 ft | 434 kts | 268° |
| 2026-05-08 16:42 | 22.93140 | 44.83412 | 37932 ft | 431 kts | 268° |
| 2026-05-08 16:42 | 22.93568 | 44.76969 | 37935 ft | 431 kts | 268° |
| 2026-05-08 16:43 | 22.94007 | 44.70499 | 37917 ft | 431 kts | 270° |
| 2026-05-08 16:43 | 22.95136 | 44.64063 | 37920 ft | 438 kts | 278° |
| 2026-05-08 16:44 | 22.97035 | 44.57748 | 37923 ft | 440 kts | 281° |
| 2026-05-08 16:44 | 22.99011 | 44.51475 | 37921 ft | 439 kts | 281° |
| 2026-05-08 16:45 | 23.00968 | 44.45203 | 37924 ft | 438 kts | 281° |
| 2026-05-08 16:45 | 23.02902 | 44.38939 | 37925 ft | 437 kts | 281° |
| 2026-05-08 16:46 | 23.04825 | 44.32686 | 37925 ft | 436 kts | 281° |
| 2026-05-08 16:46 | 23.06742 | 44.26437 | 37930 ft | 436 kts | 281° |
| 2026-05-08 16:47 | 23.08659 | 44.20183 | 37934 ft | 436 kts | 281° |
| 2026-05-08 16:47 | 23.10572 | 44.13931 | 37938 ft | 437 kts | 281° |
| 2026-05-08 16:48 | 23.12474 | 44.07708 | 37946 ft | 437 kts | 280° |
| 2026-05-08 16:48 | 23.14388 | 44.01438 | 37946 ft | 437 kts | 280° |
| 2026-05-08 16:49 | 23.16302 | 43.95159 | 37950 ft | 437 kts | 280° |
| 2026-05-08 16:49 | 23.18209 | 43.88886 | 37952 ft | 437 kts | 280° |
| 2026-05-08 16:50 | 23.20115 | 43.82609 | 37951 ft | 437 kts | 280° |
| 2026-05-08 16:50 | 23.22016 | 43.76342 | 37969 ft | 436 kts | 280° |
| 2026-05-08 16:51 | 23.23902 | 43.70112 | 37973 ft | 436 kts | 280° |
| 2026-05-08 16:51 | 23.25794 | 43.63852 | 37978 ft | 436 kts | 280° |
| 2026-05-08 16:52 | 23.27685 | 43.57585 | 37981 ft | 436 kts | 280° |
| 2026-05-08 16:52 | 23.29571 | 43.51320 | 37982 ft | 436 kts | 279° |
| 2026-05-08 16:53 | 23.32075 | 43.42975 | 37987 ft | 436 kts | 279° |
| 2026-05-08 16:53 | 23.33956 | 43.36695 | 37991 ft | 436 kts | 279° |
| 2026-05-08 16:54 | 23.35835 | 43.30416 | 38005 ft | 436 kts | 279° |
| 2026-05-08 16:54 | 23.37712 | 43.24128 | 38003 ft | 437 kts | 279° |
| 2026-05-08 16:55 | 23.39592 | 43.17824 | 38004 ft | 438 kts | 279° |
| 2026-05-08 16:55 | 23.41459 | 43.11548 | 38014 ft | 439 kts | 279° |
| 2026-05-08 16:56 | 23.43331 | 43.05211 | 38021 ft | 440 kts | 279° |
| 2026-05-08 16:56 | 23.45206 | 42.98851 | 38010 ft | 441 kts | 279° |
| 2026-05-08 16:57 | 23.47084 | 42.92477 | 38022 ft | 443 kts | 279° |
| 2026-05-08 16:57 | 23.48969 | 42.86070 | 38029 ft | 444 kts | 279° |
| 2026-05-08 16:58 | 23.50854 | 42.79653 | 38025 ft | 445 kts | 279° |
| 2026-05-08 16:58 | 23.52740 | 42.73227 | 38024 ft | 445 kts | 279° |
| 2026-05-08 16:59 | 23.54640 | 42.66797 | 38025 ft | 445 kts | 279° |
| 2026-05-08 16:59 | 23.56535 | 42.60383 | 38027 ft | 444 kts | 279° |
| 2026-05-08 17:00 | 23.58421 | 42.53979 | 38029 ft | 443 kts | 279° |
| 2026-05-08 17:00 | 23.60300 | 42.47584 | 38025 ft | 443 kts | 279° |
| 2026-05-08 17:01 | 23.62174 | 42.41195 | 38028 ft | 442 kts | 279° |
| 2026-05-08 17:01 | 23.64044 | 42.34810 | 38023 ft | 442 kts | 279° |
| 2026-05-08 17:02 | 23.65912 | 42.28421 | 38027 ft | 442 kts | 278° |
| 2026-05-08 17:02 | 23.67763 | 42.22018 | 38025 ft | 443 kts | 278° |
| 2026-05-08 17:03 | 23.69605 | 42.15608 | 38032 ft | 443 kts | 278° |
| 2026-05-08 17:03 | 23.71441 | 42.09216 | 38036 ft | 445 kts | 278° |
| 2026-05-08 17:04 | 23.73292 | 42.02768 | 38028 ft | 446 kts | 278° |
| 2026-05-08 17:04 | 23.75150 | 41.96303 | 38023 ft | 446 kts | 278° |
| 2026-05-08 17:05 | 23.77030 | 41.89847 | 38025 ft | 446 kts | 278° |
| 2026-05-08 17:05 | 23.78907 | 41.83395 | 38026 ft | 446 kts | 278° |
| 2026-05-08 17:06 | 23.80776 | 41.76945 | 38020 ft | 445 kts | 278° |
| 2026-05-08 17:06 | 23.82628 | 41.70513 | 38015 ft | 443 kts | 277° |
| 2026-05-08 17:07 | 23.84468 | 41.64098 | 38015 ft | 442 kts | 277° |
| 2026-05-08 17:07 | 23.86289 | 41.57743 | 38012 ft | 440 kts | 277° |
| 2026-05-08 17:08 | 23.88113 | 41.51361 | 38004 ft | 440 kts | 277° |
| 2026-05-08 17:08 | 23.89930 | 41.44986 | 38005 ft | 439 kts | 277° |
| 2026-05-08 17:09 | 23.91747 | 41.38605 | 38000 ft | 440 kts | 277° |
| 2026-05-08 17:09 | 23.93564 | 41.32209 | 38003 ft | 440 kts | 277° |
| 2026-05-08 17:10 | 23.95379 | 41.25807 | 37997 ft | 441 kts | 277° |
| 2026-05-08 17:10 | 23.97195 | 41.19389 | 37997 ft | 442 kts | 277° |
| 2026-05-08 17:11 | 23.99011 | 41.12963 | 37997 ft | 442 kts | 277° |
| 2026-05-08 17:11 | 24.00824 | 41.06537 | 38002 ft | 442 kts | 277° |
| 2026-05-08 17:12 | 24.02631 | 41.00119 | 37984 ft | 441 kts | 277° |
| 2026-05-08 17:12 | 24.04432 | 40.93712 | 37981 ft | 440 kts | 277° |
| 2026-05-08 17:13 | 24.06211 | 40.87369 | 37982 ft | 438 kts | 277° |
| 2026-05-08 17:13 | 24.07991 | 40.81005 | 37978 ft | 437 kts | 277° |
| 2026-05-08 17:14 | 24.09764 | 40.74655 | 37970 ft | 436 kts | 277° |
| 2026-05-08 17:14 | 24.11528 | 40.68322 | 37970 ft | 435 kts | 277° |
| 2026-05-08 17:15 | 24.13288 | 40.61994 | 37965 ft | 434 kts | 277° |
| 2026-05-08 17:15 | 24.15047 | 40.55662 | 37964 ft | 435 kts | 277° |
| 2026-05-08 17:16 | 24.16804 | 40.49324 | 37959 ft | 435 kts | 277° |
| 2026-05-08 17:16 | 24.18562 | 40.42977 | 37963 ft | 435 kts | 277° |
| 2026-05-08 17:17 | 24.20319 | 40.36630 | 37953 ft | 436 kts | 277° |
| 2026-05-08 17:17 | 24.22077 | 40.30276 | 37951 ft | 436 kts | 277° |
| 2026-05-08 17:18 | 24.23834 | 40.23920 | 37947 ft | 436 kts | 277° |
| 2026-05-08 17:18 | 24.25591 | 40.17569 | 37940 ft | 431 kts | 277° |
| 2026-05-08 17:19 | 24.26459 | 40.14489 | 37930 ft | 415 kts | 277° |
| 2026-05-08 17:19 | 24.27313 | 40.11526 | 37928 ft | 401 kts | 277° |
| 2026-05-08 17:19 | 24.28975 | 40.05889 | 37936 ft | 392 kts | 277° |
| 2026-05-08 17:20 | 24.30654 | 40.00237 | 37937 ft | 388 kts | 277° |
| 2026-05-08 17:20 | 24.32327 | 39.94630 | 37940 ft | 386 kts | 277° |
| 2026-05-08 17:21 | 24.33998 | 39.89042 | 37948 ft | 385 kts | 277° |
| 2026-05-08 17:21 | 24.35669 | 39.83449 | 37954 ft | 386 kts | 277° |
| 2026-05-08 17:22 | 24.37342 | 39.77831 | 37963 ft | 388 kts | 277° |
| 2026-05-08 17:22 | 24.39015 | 39.72185 | 37951 ft | 387 kts | 276° |
| 2026-05-08 17:23 | 24.39301 | 39.69408 | 37953 ft | 351 kts | 253° |
| 2026-05-08 17:23 | 24.38480 | 39.67012 | 37882 ft | 330 kts | 231° |
| 2026-05-08 17:23 | 24.37436 | 39.65824 | 37601 ft | 327 kts | 216° |